Monroe, WI

6:15 AM CDT on July 21, 2017 (GMT -0500)
Monroe Municipal

Weather History for KEFT - April, 2014

Change the Weather History Date:

Saturday, April 26, 2014

  Actual Average Record
Temperature  
Mean Temperature 48 °F -  
Max Temperature 57 °F 0 °F 77 °F (2001)
Min Temperature 39 °F - 30 °F (2002)
Degree Days  
Heating Degree Days 17    
Moisture  
Dew Point 33 °F    
Average Humidity 57    
Maximum Humidity 74    
Minimum Humidity 40    
Precipitation  
Precipitation 0.00 in - - ()
Sea Level Pressure  
Sea Level Pressure 29.95 in    
Wind  
Wind Speed 12 mph (NE)    
Max Wind Speed 21 mph    
Max Gust Speed 30 mph    
Visibility 10 miles    
Events      
Averages and records for this station are not official NWS values.
T = Trace of Precipitation, MM = Missing Value Source: NWS Daily Summary

Daily Weather History Graph

Daily Weather History Graph

Search for Another Location

Airport or City:

Trip Planner

Search our weather history database for the weather conditions in past years. The results will help you decide how hot, cold, wet, or windy it might be!

Date:

Astronomy

Apr. 26, 2014 Rise Set
Actual Time 6:00 AM CDT 7:52 PM CDT
Civil Twilight 5:29 AM CDT 8:23 PM CDT
Nautical Twilight 4:52 AM CDT 9:00 PM CDT
Astronomical Twilight 4:12 AM CDT 9:40 PM CDT
Moon 4:28 AM CDT (4/26) 5:18 PM CDT (4/26)
Length of Visible Light 14h 53m
Length of Day
13h 52m
Waning Crescent, 8% of the Moon is Illuminated
Apr 26
Waning Crescent
Apr 29
New
May 6
First Quarter
May 14
Full
May 21
Last Quarter

Hourly Weather History & Observations

Time (CDT) Temp. Windchill Dew Point Humidity Pressure Visibility Wind Dir Wind Speed Gust Speed Precip Events Conditions
12:15 AM 57.2 °F - 33.4 °F 41% 29.83 in 10.0 mi WNW 9.2 mph - N/A   Mostly Cloudy
12:35 AM 57.6 °F - 33.4 °F 40% 29.83 in 10.0 mi West 9.2 mph - N/A   Overcast
12:55 AM 56.1 °F - 33.8 °F 43% 29.84 in 10.0 mi West 6.9 mph - N/A   Overcast
1:15 AM 55.6 °F - 33.8 °F 44% 29.84 in 10.0 mi WNW 6.9 mph - N/A   Scattered Clouds
1:35 AM 51.8 °F - 34.7 °F 52% 29.85 in 10.0 mi NNW 8.1 mph - N/A   Clear
1:55 AM 48.6 °F - 35.4 °F 60% 29.86 in 10.0 mi North 9.2 mph - N/A   Scattered Clouds
2:15 AM 46.0 °F 41.0 °F 36.5 °F 69% 29.87 in 10.0 mi NNE 10.4 mph - N/A   Scattered Clouds
2:35 AM 45.9 °F 40.0 °F 36.9 °F 71% 29.87 in 10.0 mi NNE 12.7 mph - N/A   Scattered Clouds
2:55 AM 45.9 °F 39.4 °F 36.9 °F 71% 29.88 in 10.0 mi NNE 15.0 mph - N/A   Mostly Cloudy
3:15 AM 44.2 °F 38.0 °F 36.5 °F 74% 29.89 in 10.0 mi NNE 12.7 mph - N/A   Scattered Clouds
3:35 AM 43.5 °F 37.9 °F 34.7 °F 71% 29.89 in 10.0 mi NNE 10.4 mph - N/A   Scattered Clouds
3:55 AM 42.4 °F 36.5 °F 33.8 °F 71% 29.89 in 10.0 mi NNE 10.4 mph - N/A   Scattered Clouds
4:15 AM 42.1 °F 35.7 °F 32.9 °F 70% 29.90 in 10.0 mi NNE 11.5 mph - N/A   Clear
4:35 AM 41.5 °F 35.0 °F 32.0 °F 69% 29.90 in 10.0 mi North 11.5 mph - N/A   Clear
4:55 AM 41.0 °F 33.9 °F 31.8 °F 70% 29.90 in 10.0 mi NNE 12.7 mph 18.4 mph N/A   Clear
5:15 AM 40.8 °F 34.1 °F 31.1 °F 68% 29.91 in 10.0 mi NNE 11.5 mph - N/A   Clear
5:35 AM 39.9 °F 33.4 °F 31.1 °F 71% 29.92 in 10.0 mi North 10.4 mph - N/A   Clear
5:55 AM 39.2 °F 32.0 °F 31.3 °F 73% 29.92 in 10.0 mi North 11.5 mph - N/A   Clear
6:15 AM 39.7 °F 32.7 °F 30.9 °F 71% 29.93 in 10.0 mi North 11.5 mph - N/A   Clear
6:35 AM 40.3 °F 34.4 °F 30.6 °F 68% 29.94 in 10.0 mi North 9.2 mph - N/A   Clear
6:55 AM 40.8 °F 34.5 °F 31.5 °F 69% 29.94 in 10.0 mi NNE 10.4 mph - N/A   Clear
7:15 AM 41.4 °F 34.3 °F 31.6 °F 68% 29.95 in 10.0 mi NNE 12.7 mph - N/A   Clear
7:35 AM 42.1 °F 34.2 °F 31.8 °F 67% 29.95 in 10.0 mi NNE 16.1 mph - N/A   Clear
7:55 AM 43.0 °F 35.7 °F 32.2 °F 66% 29.95 in 10.0 mi NNE 15.0 mph - N/A   Clear
8:15 AM 43.7 °F 37.3 °F 32.4 °F 64% 29.96 in 10.0 mi NNE 12.7 mph - N/A   Clear
8:35 AM 45.0 °F 37.6 °F 31.5 °F 59% 29.97 in 10.0 mi NNE 17.3 mph - N/A   Clear
9:00 AM 46.2 °F 39.5 °F 31.3 °F 56% 29.97 in 10.0 mi NNE 16.1 mph - N/A   Clear
9:15 AM 46.4 °F 40.7 °F 31.6 °F 56% 29.97 in 10.0 mi NE 12.7 mph - N/A   Clear
9:35 AM 47.5 °F - 32.5 °F 56% 29.96 in 10.0 mi NNE 11.5 mph - N/A   Clear
9:55 AM 48.6 °F - 33.1 °F 55% 29.97 in 10.0 mi NE 13.8 mph - N/A   Clear
10:15 AM 49.1 °F - 32.2 °F 52% 29.98 in 10.0 mi NNE 10.4 mph 17.3 mph N/A   Clear
10:35 AM 49.3 °F - 32.0 °F 51% 29.98 in 10.0 mi NNE 12.7 mph 16.1 mph N/A   Clear
10:55 AM 49.8 °F - 32.2 °F 51% 29.98 in 10.0 mi NE 11.5 mph 16.1 mph N/A   Clear
11:15 AM 51.1 °F - 32.5 °F 49% 29.99 in 10.0 mi North 10.4 mph - N/A   Clear
11:35 AM 52.3 °F - 33.6 °F 49% 30.00 in 10.0 mi ENE 10.4 mph - N/A   Clear
11:55 AM 52.5 °F - 33.4 °F 48% 29.99 in 10.0 mi NNE 12.7 mph 18.4 mph N/A   Clear
12:15 PM 53.2 °F - 33.1 °F 46% 29.99 in 10.0 mi North 12.7 mph 18.4 mph N/A   Clear
12:35 PM 53.4 °F - 34.5 °F 49% 29.98 in 10.0 mi NE 12.7 mph 17.3 mph N/A   Clear
12:55 PM 54.1 °F - 34.5 °F 48% 29.99 in 10.0 mi NNE 15.0 mph 20.7 mph N/A   Clear
1:15 PM 54.0 °F - 34.0 °F 47% 29.99 in 10.0 mi NE 12.7 mph 16.1 mph N/A   Clear
1:35 PM 55.6 °F - 35.1 °F 46% 29.99 in 10.0 mi NE 11.5 mph 18.4 mph N/A   Clear
1:55 PM 56.3 °F - 34.9 °F 45% 29.99 in 10.0 mi NNE 9.2 mph 18.4 mph N/A   Clear
2:15 PM 56.5 °F - 35.2 °F 45% 29.98 in 10.0 mi NE 10.4 mph 21.9 mph N/A   Clear
2:35 PM 57.2 °F - 35.6 °F 44% 29.98 in 10.0 mi ENE 17.3 mph 20.7 mph N/A   Clear
2:55 PM 57.2 °F - 35.1 °F 43% 29.98 in 10.0 mi NE 11.5 mph 18.4 mph N/A   Clear
3:15 PM 55.9 °F - 34.9 °F 45% 29.97 in 10.0 mi NE 16.1 mph 19.6 mph N/A   Clear
3:35 PM 55.8 °F - 34.0 °F 44% 29.96 in 10.0 mi ENE 12.7 mph 21.9 mph N/A   Clear
3:55 PM 55.6 °F - 33.8 °F 44% 29.96 in 10.0 mi NE 15.0 mph 21.9 mph N/A   Clear
4:15 PM 56.1 °F - 35.1 °F 45% 29.96 in 10.0 mi NE 13.8 mph 20.7 mph N/A   Clear
4:35 PM 55.0 °F - 35.2 °F 47% 29.96 in 10.0 mi NE 15.0 mph 20.7 mph N/A   Clear
4:55 PM 55.9 °F - 33.1 °F 42% 29.97 in 10.0 mi ENE 10.4 mph 17.3 mph N/A   Clear
5:15 PM 56.1 °F - 34.0 °F 43% 29.95 in 10.0 mi NE 17.3 mph - N/A   Clear
5:40 PM 55.0 °F - 34.9 °F 47% 29.95 in 10.0 mi NE 17.3 mph 21.9 mph N/A   Clear
5:55 PM 54.3 °F - 35.8 °F 50% 29.96 in 10.0 mi NE 15.0 mph 23.0 mph N/A   Clear
6:15 PM 54.3 °F - 36.7 °F 51% 29.96 in 10.0 mi ENE 17.3 mph 23.0 mph N/A   Clear
6:35 PM 50.9 °F - 35.4 °F 55% 29.96 in 10.0 mi East 18.4 mph 24.2 mph N/A   Clear
6:55 PM 49.3 °F - 35.1 °F 58% 29.97 in 10.0 mi East 17.3 mph 24.2 mph N/A   Clear
7:15 PM 47.5 °F - 34.5 °F 61% 29.96 in 10.0 mi East 15.0 mph 21.9 mph N/A   Clear
7:35 PM 46.8 °F - 33.8 °F 61% 29.98 in 10.0 mi ENE 17.3 mph 23.0 mph N/A   Scattered Clouds
7:55 PM 46.2 °F 39.8 °F 33.6 °F 61% 29.98 in 10.0 mi East 15.0 mph 21.9 mph N/A   Mostly Cloudy
8:15 PM 44.8 °F 37.4 °F 32.5 °F 62% 29.97 in 10.0 mi ENE 17.3 mph 26.5 mph N/A   Scattered Clouds
8:40 PM 43.3 °F 36.5 °F 32.0 °F 64% 29.97 in 10.0 mi ENE 13.8 mph 26.5 mph N/A   Clear
8:55 PM 42.6 °F 34.0 °F 30.9 °F 63% 29.97 in 10.0 mi NE 19.6 mph 28.8 mph N/A   Clear
9:15 PM 41.9 °F 34.0 °F 31.1 °F 66% 29.98 in 10.0 mi NE 16.1 mph 23.0 mph N/A   Clear
9:35 PM 41.0 °F 31.6 °F 30.2 °F 65% 29.97 in 10.0 mi NE 20.7 mph 25.3 mph N/A   Clear
9:55 PM 40.5 °F 31.5 °F 29.3 °F 64% 29.98 in 10.0 mi ENE 18.4 mph 29.9 mph N/A   Clear
10:15 PM 40.3 °F 31.6 °F 29.3 °F 65% 29.98 in 10.0 mi ENE 17.3 mph 25.3 mph N/A   Scattered Clouds
10:35 PM 40.3 °F 31.6 °F 28.9 °F 64% 29.98 in 10.0 mi ENE 17.3 mph 25.3 mph N/A   Scattered Clouds
10:55 PM 40.3 °F 31.6 °F 29.3 °F 65% 29.98 in 10.0 mi ENE 17.3 mph 23.0 mph N/A   Scattered Clouds
11:15 PM 40.3 °F 32.2 °F 28.9 °F 64% 29.98 in 10.0 mi ENE 15.0 mph 23.0 mph N/A   Clear
11:35 PM 40.5 °F 32.5 °F 28.2 °F 62% 29.97 in 10.0 mi ENE 15.0 mph 27.6 mph N/A   Clear
11:55 PM 40.1 °F 32.4 °F 29.1 °F 65% 29.98 in 10.0 mi ENE 13.8 mph 20.7 mph N/A   Clear